الصفحة الرئيسية
METAR-TAF:

METAR-TAF

مطار :

قاعدة جوية عسكرية

Shizuhama, اليابان

دائرة عرض: 34-49N, خط طول: 138-18E, ارتفاع: 7 متر

مراقبة الطقس الحالي

تاريخ ووقت الإصدار 18ساعات و 58 دقيقة قبل الساعة 09:47UTC
ريح 10 عقدة من الغرب
درجة الحرارة 25°درجة مئوية
الرطوبة 83%
ضغط 1004 hPa
الرؤية 10 كم أو أكثر
غيوم قليلة على ارتفاع 1500 قدم
غيوم متفرقة على ارتفاع 2000 قدم
غيوم مفككة على ارتفاع 25000 قدم

METAR: RJNY 160947Z 27010KT 9999 FEW015 SCT020 BKN250 25/22 Q1004 RMK 2CU015 3CU020 A2965

زمن: 13:45 (04:45 UTC)


TAF: مفقودة

أرصاد الطقس والتوقعات من أكثر من 4000 مطار (تقارير الطقس للمطار METAR والتنبؤ بالطقس بالمطارTAF).

المحطات المتاحة هي النقط الصفراء والحمراء على الخريطة.

حرك المؤشر فوق النقطة لمعرفة اسم المحطة.

ثم انقر لمعرفة أرصاد وتوقعات الطقس.

لتغيير الخارطة: اضغط على الأزرار الخضراء مع رمز الصليب الأسود للتكبير. على الزر الأخضر مع شرطة للتصغير، أو على الأسهم الخضراء للخرائط المجاورة.


METAR-TAF: